Terminal Aerodrome Forecast
Issued by NWS

Home | Current Version | Previous Version | Text Only | Print | Product List | Glossary On
Versions: 1 2 3 4 5 6 7 8 9 10 11 12 13 14 15
210
FTUS43 KLSX 032331
TAFSUS
TAF
KSUS 032331Z 0400/0424 11004KT P6SM OVC100
     FM041000 12004KT 5SM -RA OVC030
     FM041300 14006KT 4SM -RA OVC015
     FM041500 14006KT 3SM -RA BR OVC008
     FM042000 22008KT P6SM OVC015=

USA.gov is the U.S. government's official web portal to all federal, state and local government web resources and services.